Time;durP1;ratioP1;P1;durP2;ratioP2;P2;SDS_P1;SDS_P2;PMS_P1;PMS_P2;Temp;Humidity;BMP_temperature;BMP_pressure;BME280_temperature;BME280_humidity;BME280_pressure;Samples;Min_cycle;Max_cycle;Signal;HPM_P1;HPM_P2
2023/09/22 00:01:50;;;;;;;12.20;8.70;;;;;;;18.33;55.17;99905.80;105627;1254;73119;-74
2023/09/22 00:04:18;;;;;;;13.20;9.10;;;;;;;18.34;56.20;99903.68;105641;1254;70732;-73
2023/09/22 00:06:46;;;;;;;12.70;8.10;;;;;;;18.33;56.35;99904.20;105588;1257;71452;-73
2023/09/22 00:09:13;;;;;;;13.30;8.90;;;;;;;18.30;57.23;99900.67;105555;1251;59506;-73
2023/09/22 00:11:40;;;;;;;14.40;9.60;;;;;;;18.24;58.59;99906.55;105697;1257;59990;-74
2023/09/22 00:14:08;;;;;;;12.80;9.00;;;;;;;18.15;59.43;99909.58;105686;1254;73389;-73
2023/09/22 00:16:36;;;;;;;11.80;9.30;;;;;;;18.02;60.33;99906.56;105630;1251;70799;-75
2023/09/22 00:19:05;;;;;;;15.40;9.80;;;;;;;17.88;61.19;99909.17;105657;1254;70405;-74
2023/09/22 00:21:33;;;;;;;13.50;9.30;;;;;;;17.74;62.22;99912.70;105685;1254;60205;-76
2023/09/22 00:24:03;;;;;;;11.70;10.40;;;;;;;17.60;62.83;99916.20;105626;1251;60050;-74
2023/09/22 00:26:31;;;;;;;11.20;9.60;;;;;;;17.50;63.48;99917.76;105662;1251;72202;-76
2023/09/22 00:28:59;;;;;;;15.70;10.20;;;;;;;17.41;63.94;99919.16;105610;1258;70462;-74
2023/09/22 00:31:26;;;;;;;13.20;10.40;;;;;;;17.35;64.61;99923.55;105583;1257;71559;-73
2023/09/22 00:33:54;;;;;;;17.30;11.00;;;;;;;17.25;65.22;99925.34;105573;1253;59667;-76
2023/09/22 00:36:22;;;;;;;12.00;10.70;;;;;;;17.13;65.91;99926.86;107899;1252;60074;-74
2023/09/22 00:38:52;;;;;;;12.80;9.90;;;;;;;17.04;66.39;99928.22;109082;1254;72964;-75
2023/09/22 00:41:19;;;;;;;14.40;9.10;;;;;;;17.05;66.85;99926.07;107023;1253;68866;-76
2023/09/22 00:43:46;;;;;;;12.80;10.20;;;;;;;17.12;67.12;99922.73;105790;1253;72693;-76
2023/09/22 00:46:14;;;;;;;15.30;10.60;;;;;;;17.09;67.50;99920.42;105911;1254;59665;-77
2023/09/22 00:48:42;;;;;;;12.90;10.60;;;;;;;17.01;67.76;99921.95;105839;1255;59224;-77
2023/09/22 00:51:09;;;;;;;13.90;10.00;;;;;;;16.98;68.01;99920.91;105850;1254;72041;-76
2023/09/22 00:53:37;;;;;;;12.70;10.80;;;;;;;16.98;68.24;99924.24;105784;1254;70254;-75
2023/09/22 00:56:05;;;;;;;15.30;11.00;;;;;;;16.97;68.55;99925.91;105418;1252;72446;-77
2023/09/22 00:58:34;;;;;;;12.10;10.90;;;;;;;16.96;68.77;99929.54;106367;1254;60188;-75
2023/09/22 01:01:01;;;;;;;11.40;10.30;;;;;;;16.94;68.91;99931.06;107222;1251;59909;-75
2023/09/22 01:03:30;;;;;;;14.20;10.50;;;;;;;16.90;69.18;99932.04;107316;1253;70472;-75
2023/09/22 01:05:58;;;;;;;14.40;10.20;;;;;;;16.96;69.19;99930.40;105786;1255;69997;-73
2023/09/22 01:08:26;;;;;;;12.90;10.40;;;;;;;17.03;69.23;99928.55;105840;1257;72730;-74
2023/09/22 01:10:54;;;;;;;12.20;10.40;;;;;;;17.01;69.23;99927.89;105863;1259;59589;-73
2023/09/22 01:13:22;;;;;;;12.70;10.80;;;;;;;16.95;69.44;99928.13;105681;1254;60100;-75
2023/09/22 01:15:49;;;;;;;12.70;11.40;;;;;;;16.91;69.57;99926.52;105581;1257;73036;-75
2023/09/22 01:18:17;;;;;;;12.20;10.90;;;;;;;16.87;69.76;99929.40;105604;1259;70441;-75
2023/09/22 01:20:44;;;;;;;13.60;10.70;;;;;;;16.83;69.82;99923.59;105805;1254;72425;-74
2023/09/22 01:23:12;;;;;;;17.10;10.80;;;;;;;16.81;69.89;99924.83;105549;1252;60160;-75
2023/09/22 01:25:41;;;;;;;12.60;11.20;;;;;;;16.77;70.07;99928.42;105851;1251;59730;-75
2023/09/22 01:28:09;;;;;;;16.80;11.00;;;;;;;16.70;70.19;99931.54;105623;1253;71139;-74
2023/09/22 01:30:39;;;;;;;11.50;9.60;;;;;;;16.74;70.24;99928.70;105690;1255;70115;-74
2023/09/22 01:33:07;;;;;;;14.00;10.10;;;;;;;16.80;70.41;99931.06;105499;1257;71204;-75
2023/09/22 01:35:35;;;;;;;15.80;10.10;;;;;;;16.80;70.68;99930.47;105761;1253;60163;-75
2023/09/22 01:38:10;;;;;;;12.70;10.40;;;;;;;16.79;70.60;99930.44;105536;1257;59599;-75
2023/09/22 01:40:40;;;;;;;12.20;10.50;;;;;;;16.78;69.91;99926.59;105642;1252;71699;-73
2023/09/22 01:43:08;;;;;;;15.40;10.60;;;;;;;16.79;69.66;99926.02;105636;1257;68793;-76
2023/09/22 01:45:36;;;;;;;15.50;11.20;;;;;;;16.80;69.67;99924.61;105700;1259;71518;-75
2023/09/22 01:48:05;;;;;;;16.00;10.40;;;;;;;16.80;69.80;99925.49;105638;1257;59517;-75
2023/09/22 01:50:40;;;;;;;13.10;11.00;;;;;;;16.78;69.62;99925.79;105639;1254;59745;-76
2023/09/22 01:53:12;;;;;;;12.70;10.60;;;;;;;16.76;69.65;99925.30;105610;1257;71571;-75
2023/09/22 01:55:40;;;;;;;16.60;10.70;;;;;;;16.75;69.65;99923.91;105822;1254;68457;-77
2023/09/22 01:58:08;;;;;;;14.30;10.20;;;;;;;16.73;69.22;99922.30;105640;1254;73123;-75
2023/09/22 02:00:35;;;;;;;13.60;10.20;;;;;;;16.80;68.34;99922.65;105418;1254;61665;-75
2023/09/22 02:03:04;;;;;;;13.50;10.00;;;;;;;16.88;67.89;99922.88;105638;1254;59538;-76
2023/09/22 02:05:32;;;;;;;12.20;10.10;;;;;;;16.90;67.61;99925.20;106328;1254;71765;-77
2023/09/22 02:07:59;;;;;;;14.90;10.30;;;;;;;16.91;67.28;99916.90;107027;1254;68819;-74
2023/09/22 02:10:27;;;;;;;15.60;10.10;;;;;;;16.92;67.14;99914.97;106786;1257;71498;-75
2023/09/22 02:12:55;;;;;;;14.20;10.10;;;;;;;16.93;67.01;99915.88;106149;1261;60073;-76
2023/09/22 02:15:22;;;;;;;14.40;10.40;;;;;;;16.94;66.88;99915.62;105616;1253;59736;-76
2023/09/22 02:17:50;;;;;;;12.00;9.60;;;;;;;16.94;66.63;99916.33;105634;1254;71718;-77
2023/09/22 02:20:23;;;;;;;15.80;10.80;;;;;;;16.94;66.52;99915.98;105928;1253;68864;-76
2023/09/22 02:22:55;;;;;;;;;;;;;;;16.93;66.40;99918.80;108035;1254;71078;-75
2023/09/22 02:25:24;;;;;;;11.90;8.90;;;;;;;16.92;66.38;99915.84;108393;1253;58788;-77
2023/09/22 02:27:53;;;;;;;16.70;9.00;;;;;;;16.93;66.20;99919.34;107731;1254;59752;-74
2023/09/22 02:30:22;;;;;;;15.50;9.70;;;;;;;16.93;66.14;99914.66;106209;1257;72792;-74
2023/09/22 02:32:54;;;;;;;14.30;9.40;;;;;;;16.92;66.03;99910.34;105806;1254;70569;-75
2023/09/22 02:35:22;;;;;;;15.90;9.80;;;;;;;16.90;65.96;99909.80;105545;1254;72477;-76
2023/09/22 02:37:50;;;;;;;10.70;9.00;;;;;;;16.89;65.77;99910.87;106355;1253;59701;-74
2023/09/22 02:40:18;;;;;;;12.40;9.60;;;;;;;16.88;65.81;99909.80;108457;1252;59641;-75
2023/09/22 02:42:45;;;;;;;14.50;10.10;;;;;;;16.87;65.82;99911.11;105797;1256;73862;-75
2023/09/22 02:45:15;;;;;;;13.00;10.00;;;;;;;16.86;65.80;99911.25;105930;1253;70099;-75
2023/09/22 02:47:42;;;;;;;10.40;8.60;;;;;;;16.86;65.71;99913.84;106002;1252;72750;-74
2023/09/22 02:50:15;;;;;;;12.60;9.90;;;;;;;16.85;65.74;99914.13;105804;1252;59770;-75
2023/09/22 02:52:42;;;;;;;11.30;8.60;;;;;;;16.84;65.69;99910.87;105757;1252;59946;-77
2023/09/22 02:55:11;;;;;;;16.70;9.10;;;;;;;16.82;65.69;99911.80;105443;1259;73036;-74
2023/09/22 02:57:42;;;;;;;14.10;9.60;;;;;;;16.82;65.80;99909.73;105688;1257;69411;-73
2023/09/22 03:00:17;;;;;;;13.30;9.40;;;;;;;16.80;65.78;99913.84;105598;1257;71658;-72
2023/09/22 03:02:49;;;;;;;16.10;10.00;;;;;;;16.78;65.79;99914.25;105634;1253;59704;-75
2023/09/22 03:05:18;;;;;;;15.70;9.80;;;;;;;16.77;65.73;99915.16;105537;1257;59615;-74
2023/09/22 03:07:50;;;;;;;12.60;9.70;;;;;;;16.76;65.82;99918.43;105532;1254;71859;-75
2023/09/22 03:10:18;;;;;;;15.80;9.70;;;;;;;16.74;65.89;99918.09;105800;1254;69215;-75
2023/09/22 03:12:50;;;;;;;13.80;9.70;;;;;;;16.72;65.84;99911.36;105784;1255;72797;-75
2023/09/22 03:15:18;;;;;;;12.90;10.10;;;;;;;16.70;65.99;99906.39;107673;1254;59113;-76
2023/09/22 03:17:45;;;;;;;12.40;9.80;;;;;;;16.69;66.05;99909.38;107248;1253;59797;-75
2023/09/22 03:20:13;;;;;;;14.30;9.40;;;;;;;16.68;65.99;99917.38;106600;1254;72265;-76
2023/09/22 03:22:42;;;;;;;14.20;9.40;;;;;;;16.67;66.02;99922.17;106634;1253;70112;-75
2023/09/22 03:25:10;;;;;;;15.30;10.50;;;;;;;16.66;66.14;99920.91;106002;1254;71509;-74
2023/09/22 03:27:39;;;;;;;15.30;9.70;;;;;;;16.65;66.33;99919.96;105736;1255;60638;-75
2023/09/22 03:30:09;;;;;;;14.40;11.60;;;;;;;16.64;66.51;99923.39;105719;1257;60447;-76
2023/09/22 03:32:39;;;;;;;13.60;9.80;;;;;;;16.64;66.72;99922.19;105366;1261;73868;-76
2023/09/22 03:35:08;;;;;;;13.30;9.90;;;;;;;16.72;66.70;99924.36;105592;1261;70084;-76
2023/09/22 03:37:37;;;;;;;13.50;10.10;;;;;;;16.79;66.41;99926.84;105896;1254;73048;-75
2023/09/22 03:40:13;;;;;;;14.10;10.30;;;;;;;16.81;66.33;99923.79;105536;1254;60629;-76
2023/09/22 03:42:43;;;;;;;14.20;10.80;;;;;;;16.81;66.27;99926.23;105462;1261;60468;-75
2023/09/22 03:45:12;;;;;;;15.50;10.40;;;;;;;16.81;66.16;99926.81;105852;1257;74084;-75
2023/09/22 03:47:40;;;;;;;17.00;11.50;;;;;;;16.81;66.15;99929.46;105869;1258;68991;-74
2023/09/22 03:50:10;;;;;;;15.70;11.40;;;;;;;16.81;66.14;99932.71;105571;1254;72714;-75
2023/09/22 03:52:39;;;;;;;13.00;10.50;;;;;;;16.78;66.18;99936.25;105641;1254;60562;-76
2023/09/22 03:55:08;;;;;;;14.70;10.80;;;;;;;16.77;66.13;99938.98;105765;1254;59971;-76
2023/09/22 03:57:36;;;;;;;12.90;10.70;;;;;;;16.75;66.20;99939.98;105748;1254;72642;-73
2023/09/22 04:00:17;;;;;;;13.00;10.30;;;;;;;16.74;66.22;99944.20;105570;1254;70434;-74
2023/09/22 04:02:45;;;;;;;17.90;11.70;;;;;;;16.71;66.25;99949.33;105376;1257;71329;-73
2023/09/22 04:05:13;;;;;;;12.00;9.70;;;;;;;16.68;66.43;99953.82;105521;1257;60449;-75
2023/09/22 04:07:42;;;;;;;13.80;10.80;;;;;;;16.64;66.53;99950.22;105577;1258;60303;-74
2023/09/22 04:10:10;;;;;;;14.80;11.40;;;;;;;16.62;66.52;99949.17;105526;1252;72607;-75
2023/09/22 04:12:38;;;;;;;12.70;10.80;;;;;;;16.59;66.67;99946.91;105933;1258;68941;-76
2023/09/22 04:15:06;;;;;;;13.00;10.50;;;;;;;16.56;66.66;99945.95;105817;1259;71495;-76
2023/09/22 04:17:34;;;;;;;17.70;9.90;;;;;;;16.54;66.69;99946.30;105714;1259;60546;-76
2023/09/22 04:20:07;;;;;;;15.20;9.60;;;;;;;16.52;66.62;99948.13;106503;1259;60390;-73
2023/09/22 04:22:35;;;;;;;;;;;;;;;16.51;66.68;99954.97;106791;1257;74282;-75
2023/09/22 04:25:12;;;;;;;15.60;9.60;;;;;;;16.51;66.71;99955.34;106546;1253;69673;-74
2023/09/22 04:27:43;;;;;;;11.20;9.00;;;;;;;16.51;66.68;99954.14;106116;1254;71058;-76
2023/09/22 04:30:15;;;;;;;12.10;9.80;;;;;;;16.53;66.58;99949.98;105655;1254;60601;-76
2023/09/22 04:32:43;;;;;;;13.00;9.30;;;;;;;16.54;66.50;99954.16;105954;1253;60356;-76
2023/09/22 04:35:12;;;;;;;12.60;9.00;;;;;;;16.55;66.58;99953.08;105579;1254;73920;-75
2023/09/22 04:37:40;;;;;;;13.10;9.60;;;;;;;16.58;66.43;99956.84;105947;1255;68524;-75
2023/09/22 04:40:23;;;;;;;11.10;9.80;;;;;;;16.60;66.38;99953.88;105662;1255;72711;-75
2023/09/22 04:42:51;;;;;;;15.50;9.90;;;;;;;16.62;66.21;99954.33;108484;1254;60504;-76
2023/09/22 04:45:19;;;;;;;12.90;9.70;;;;;;;16.65;66.23;99957.11;109031;1253;60438;-76
2023/09/22 04:47:47;;;;;;;12.70;9.40;;;;;;;16.70;66.12;99954.89;106144;1253;72580;-76
2023/09/22 04:50:16;;;;;;;16.00;11.10;;;;;;;16.75;65.91;99960.31;105671;1256;68356;-75
2023/09/22 04:52:45;;;;;;;16.10;9.70;;;;;;;16.79;65.74;99961.96;105739;1258;71828;-76
2023/09/22 04:55:12;;;;;;;14.30;9.50;;;;;;;16.83;65.56;99967.34;105466;1253;60438;-75
2023/09/22 04:57:40;;;;;;;9.80;8.80;;;;;;;16.87;65.32;99977.33;105821;1254;60406;-75
2023/09/22 05:00:15;;;;;;;13.60;9.00;;;;;;;16.91;65.19;99975.77;105696;1259;73864;-77
2023/09/22 05:02:43;;;;;;;12.50;8.80;;;;;;;16.92;64.95;99978.30;105937;1255;68684;-77
2023/09/22 05:05:11;;;;;;;14.40;9.00;;;;;;;16.93;64.81;99977.55;105866;1256;71454;-78
2023/09/22 05:07:39;;;;;;;16.40;9.20;;;;;;;16.94;64.55;99974.95;105867;1254;60520;-77
2023/09/22 05:10:07;;;;;;;10.20;8.50;;;;;;;16.96;64.26;99972.72;105896;1254;60325;-77
2023/09/22 05:12:35;;;;;;;18.40;9.20;;;;;;;17.00;64.01;99971.73;105807;1256;72815;-76
2023/09/22 05:15:04;;;;;;;14.50;9.30;;;;;;;17.02;63.72;99967.83;105857;1254;69099;-76
2023/09/22 05:17:32;;;;;;;13.20;8.70;;;;;;;17.01;63.67;99968.98;105817;1256;72992;-75
2023/09/22 05:20:03;;;;;;;12.50;8.90;;;;;;;17.03;63.66;99967.40;105570;1254;60485;-77
2023/09/22 05:22:31;;;;;;;14.90;8.40;;;;;;;17.04;63.61;99971.53;105842;1259;60574;-76
2023/09/22 05:24:58;;;;;;;13.30;9.00;;;;;;;17.06;63.51;99972.89;106011;1254;73820;-77
2023/09/22 05:27:26;;;;;;;16.80;9.20;;;;;;;17.04;63.48;99975.59;106840;1254;69983;-76
2023/09/22 05:29:53;;;;;;;12.90;9.40;;;;;;;17.05;63.54;99974.18;107413;1253;72731;-75
2023/09/22 05:32:21;;;;;;;16.30;9.70;;;;;;;17.08;63.37;99972.70;107966;1253;60472;-78
2023/09/22 05:34:51;;;;;;;15.00;9.00;;;;;;;17.14;63.04;99970.88;106778;1253;60341;-78
2023/09/22 05:37:19;;;;;;;11.90;9.40;;;;;;;17.20;62.98;99972.96;105719;1259;75337;-77
2023/09/22 05:39:46;;;;;;;10.70;8.20;;;;;;;17.26;62.74;99971.96;105927;1254;69946;-76
2023/09/22 05:42:14;;;;;;;13.60;8.90;;;;;;;17.33;62.44;99976.83;105897;1254;70674;-77
2023/09/22 05:44:43;;;;;;;14.90;9.20;;;;;;;17.36;61.82;99978.73;105798;1259;60418;-77
2023/09/22 05:47:12;;;;;;;13.20;9.60;;;;;;;17.37;61.83;99979.65;105683;1252;60434;-75
2023/09/22 05:49:39;;;;;;;11.60;8.90;;;;;;;17.39;61.83;99978.11;105909;1254;72736;-75
2023/09/22 05:52:07;;;;;;;15.40;8.90;;;;;;;17.43;61.79;99980.84;105917;1254;68691;-77
2023/09/22 05:54:35;;;;;;;15.00;8.70;;;;;;;17.47;61.68;99980.55;105855;1254;72796;-77
2023/09/22 05:57:02;;;;;;;10.70;8.80;;;;;;;17.53;61.64;99984.30;105878;1254;61196;-77
2023/09/22 05:59:30;;;;;;;12.70;8.70;;;;;;;17.57;61.42;99989.52;105849;1254;60582;-77
2023/09/22 06:01:59;;;;;;;17.10;9.20;;;;;;;17.60;61.37;99984.85;105690;1253;72563;-77
2023/09/22 06:04:29;;;;;;;15.80;8.70;;;;;;;17.63;61.30;99982.94;105947;1260;69305;-77
2023/09/22 06:06:58;;;;;;;10.50;8.20;;;;;;;17.66;61.44;99983.39;105820;1254;71867;-77
2023/09/22 06:09:26;;;;;;;16.30;8.80;;;;;;;17.74;61.35;99987.40;105931;1256;60540;-77
2023/09/22 06:11:53;;;;;;;19.10;9.70;;;;;;;17.84;61.20;99986.36;105796;1260;59395;-77
2023/09/22 06:14:21;;;;;;;15.80;9.50;;;;;;;17.94;61.01;99984.69;105869;1254;72662;-77
2023/09/22 06:16:49;;;;;;;12.40;9.10;;;;;;;18.05;60.70;99985.41;106145;1256;69871;-77
2023/09/22 06:19:16;;;;;;;12.00;8.80;;;;;;;18.16;60.30;99987.33;107309;1254;72820;-78
2023/09/22 06:21:44;;;;;;;15.50;8.90;;;;;;;18.25;60.06;99986.42;107699;1256;60602;-77
2023/09/22 06:24:13;;;;;;;13.50;8.40;;;;;;;18.36;59.66;99992.75;105826;1254;60351;-74
2023/09/22 06:26:40;;;;;;;17.40;8.20;;;;;;;18.43;59.23;99992.39;106480;1254;72843;-76
2023/09/22 06:29:09;;;;;;;15.80;9.00;;;;;;;18.52;59.11;99989.95;106657;1254;68916;-77
2023/09/22 06:31:37;;;;;;;13.70;8.60;;;;;;;18.62;58.96;99993.76;106509;1258;71456;-76
2023/09/22 06:34:07;;;;;;;12.40;8.60;;;;;;;18.71;58.93;99996.27;106473;1254;60523;-75
2023/09/22 06:36:35;;;;;;;14.00;8.00;;;;;;;18.82;58.88;100002.11;106732;1251;60432;-76
2023/09/22 06:39:07;;;;;;;16.40;9.10;;;;;;;18.96;58.63;99999.19;106335;1254;73967;-77
2023/09/22 06:41:35;;;;;;;11.20;8.50;;;;;;;19.10;58.29;100003.73;105958;1252;70672;-76
2023/09/22 06:44:04;;;;;;;11.90;7.70;;;;;;;19.20;57.78;100013.23;105937;1256;72477;-78
2023/09/22 06:46:35;;;;;;;11.70;8.10;;;;;;;19.29;57.13;100009.10;106035;1259;60446;-77
2023/09/22 06:49:07;;;;;;;16.20;8.80;;;;;;;19.39;56.84;100010.23;105862;1252;60968;-76
2023/09/22 06:51:37;;;;;;;11.20;8.20;;;;;;;19.49;57.07;100009.00;105964;1254;76142;-77
2023/09/22 06:54:05;;;;;;;17.60;8.80;;;;;;;19.61;56.79;100009.80;105829;1260;70308;-77
2023/09/22 06:56:35;;;;;;;12.00;8.60;;;;;;;19.72;56.76;100015.57;105953;1254;73039;-77
2023/09/22 06:59:16;;;;;;;12.90;8.60;;;;;;;19.85;56.13;100014.21;105997;1251;60474;-77
2023/09/22 07:01:44;;;;;;;13.00;8.10;;;;;;;19.94;55.99;100012.54;105901;1251;60514;-78
2023/09/22 07:04:12;;;;;;;10.00;7.10;;;;;;;20.00;55.55;100015.64;106082;1259;73773;-76
2023/09/22 07:06:41;;;;;;;11.30;7.80;;;;;;;20.02;55.77;100016.29;106254;1258;69583;-76
2023/09/22 07:09:09;;;;;;;11.40;8.30;;;;;;;20.06;55.95;100013.92;106099;1254;71361;-77
2023/09/22 07:11:40;;;;;;;16.00;8.30;;;;;;;20.13;55.97;100011.89;106144;1254;60462;-77
2023/09/22 07:14:08;;;;;;;10.70;7.90;;;;;;;20.19;56.09;100019.02;105924;1251;60494;-76
2023/09/22 07:16:36;;;;;;;17.30;8.80;;;;;;;20.26;56.22;100015.60;105893;1251;73800;-76
2023/09/22 07:19:04;;;;;;;10.00;7.40;;;;;;;20.39;56.31;100016.08;106036;1257;69212;-76
2023/09/22 07:21:33;;;;;;;8.90;7.50;;;;;;;20.53;56.18;100021.93;105892;1267;71363;-76
2023/09/22 07:24:01;;;;;;;10.70;8.30;;;;;;;20.62;56.19;100017.16;105940;1256;60500;-74
2023/09/22 07:26:29;;;;;;;14.10;9.00;;;;;;;20.70;56.28;100010.71;106041;1252;60904;-77
2023/09/22 07:28:58;;;;;;;11.80;7.80;;;;;;;20.81;56.23;100013.45;105982;1259;73895;-77
2023/09/22 07:31:30;;;;;;;12.40;8.90;;;;;;;20.89;56.15;100016.38;106368;1256;69222;-78
2023/09/22 07:33:59;;;;;;;16.40;7.90;;;;;;;20.92;56.16;100011.89;106300;1255;71426;-77
2023/09/22 07:36:26;;;;;;;15.20;7.90;;;;;;;20.96;56.27;100013.80;106175;1259;60520;-77
2023/09/22 07:38:54;;;;;;;8.40;7.50;;;;;;;21.04;56.32;100021.33;106221;1251;61014;-77
2023/09/22 07:41:21;;;;;;;13.50;7.60;;;;;;;21.06;56.11;100019.23;107241;1251;73792;-76
2023/09/22 07:43:49;;;;;;;9.50;7.70;;;;;;;21.11;56.29;100019.35;107122;1256;68898;-76
2023/09/22 07:46:16;;;;;;;15.60;9.00;;;;;;;21.17;56.29;100017.25;106564;1254;72712;-77
2023/09/22 07:48:45;;;;;;;13.80;8.00;;;;;;;21.25;56.24;100020.75;106224;1257;60546;-77
2023/09/22 07:51:13;;;;;;;12.90;7.70;;;;;;;21.30;56.22;100025.36;106044;1251;60476;-76
2023/09/22 07:53:44;;;;;;;11.80;7.90;;;;;;;21.36;56.20;100023.66;105957;1257;73961;-75
2023/09/22 07:56:12;;;;;;;10.20;7.30;;;;;;;21.44;56.01;100022.27;105909;1254;70191;-77
2023/09/22 07:58:41;;;;;;;11.20;8.20;;;;;;;21.51;55.99;100021.41;105790;1251;71133;-77
2023/09/22 08:01:13;;;;;;;8.40;7.60;;;;;;;21.61;55.89;100020.41;105960;1256;60542;-77
2023/09/22 08:03:43;;;;;;;11.90;8.50;;;;;;;21.71;55.79;100021.02;106602;1253;60530;-77
2023/09/22 08:06:12;;;;;;;15.90;8.50;;;;;;;21.80;55.66;100018.21;106973;1251;73329;-76
2023/09/22 08:08:39;;;;;;;9.70;7.10;;;;;;;21.90;55.43;100015.99;106586;1256;70859;-77
2023/09/22 08:11:07;;;;;;;11.50;7.80;;;;;;;22.02;55.30;100016.58;105750;1258;75096;-77
2023/09/22 08:13:35;;;;;;;9.60;7.90;;;;;;;22.17;55.12;100015.23;105974;1254;61015;-76
2023/09/22 08:16:07;;;;;;;10.20;7.90;;;;;;;22.34;54.63;100014.06;105946;1254;60546;-76
2023/09/22 08:18:37;;;;;;;9.30;7.40;;;;;;;22.49;54.27;100009.81;105934;1257;76137;-77
2023/09/22 08:21:06;;;;;;;10.70;7.30;;;;;;;22.60;54.02;100005.52;106045;1256;74221;-76
2023/09/22 08:23:34;;;;;;;12.40;7.60;;;;;;;22.74;53.73;100003.89;105864;1258;72559;-77
2023/09/22 08:26:17;;;;;;;15.80;8.00;;;;;;;22.89;53.18;100007.81;105860;1251;60645;-77
2023/09/22 08:28:45;;;;;;;12.50;8.10;;;;;;;23.04;53.28;100008.41;105989;1251;60485;-75
2023/09/22 08:31:14;;;;;;;10.80;8.00;;;;;;;23.20;52.77;100007.84;105946;1251;73984;-76
2023/09/22 08:33:41;;;;;;;11.50;7.60;;;;;;;23.35;52.47;100002.02;105862;1256;72800;-77
2023/09/22 08:36:09;;;;;;;12.20;7.90;;;;;;;23.51;51.83;100001.83;105901;1256;72703;-75
2023/09/22 08:38:36;;;;;;;14.00;7.80;;;;;;;23.63;51.71;99999.95;105925;1252;62288;-76
2023/09/22 08:41:04;;;;;;;12.50;7.60;;;;;;;23.82;51.31;99995.44;105927;1256;62106;-75
2023/09/22 08:43:32;;;;;;;10.00;7.70;;;;;;;24.05;50.78;99998.14;106758;1260;74029;-75
2023/09/22 08:46:00;;;;;;;11.00;7.50;;;;;;;24.31;50.35;99999.89;106716;1251;70936;-75
2023/09/22 08:48:28;;;;;;;13.30;7.60;;;;;;;24.57;49.69;99995.71;108673;1253;71887;-76
2023/09/22 08:50:56;;;;;;;13.60;7.60;;;;;;;24.82;48.43;99995.65;106424;1256;60555;-74
2023/09/22 08:53:23;;;;;;;8.20;7.40;;;;;;;25.01;47.75;99991.71;105884;1251;60530;-76
2023/09/22 08:55:51;;;;;;;8.80;6.70;;;;;;;25.19;47.22;99988.84;105928;1259;73906;-75
2023/09/22 08:58:18;;;;;;;11.30;7.80;;;;;;;25.39;46.86;99991.25;106872;1257;69678;-75
2023/09/22 09:00:53;;;;;;;9.00;6.30;;;;;;;25.67;46.10;99991.57;106132;1257;74940;-76
2023/09/22 09:03:21;;;;;;;12.80;6.50;;;;;;;26.07;45.30;99986.20;105986;1258;60597;-77
2023/09/22 09:05:49;;;;;;;10.10;6.60;;;;;;;26.49;44.10;99989.75;106128;1253;60368;-77
2023/09/22 09:08:19;;;;;;;9.60;6.40;;;;;;;26.89;43.27;99991.73;105803;1254;72659;-75
2023/09/22 09:10:47;;;;;;;9.70;6.30;;;;;;;27.33;42.88;99984.68;105923;1257;68759;-77
2023/09/22 09:13:19;;;;;;;11.20;6.90;;;;;;;27.87;42.04;99982.00;105891;1256;72453;-77
2023/09/22 09:15:47;;;;;;;10.20;6.70;;;;;;;28.42;41.15;99987.12;105900;1257;60441;-75
2023/09/22 09:18:17;;;;;;;9.60;6.70;;;;;;;28.95;40.44;99983.92;105930;1256;61671;-76
2023/09/22 09:20:47;;;;;;;9.10;5.90;;;;;;;29.55;39.64;99980.06;105884;1254;74755;-77
2023/09/22 09:23:19;;;;;;;9.30;5.70;;;;;;;30.16;38.47;99978.04;105969;1259;69046;-76
2023/09/22 09:25:47;;;;;;;7.20;5.90;;;;;;;30.70;37.76;99975.05;105981;1257;72895;-76
2023/09/22 09:28:15;;;;;;;8.60;6.30;;;;;;;31.21;36.95;99971.59;105814;1257;60972;-75
2023/09/22 09:31:01;;;;;;;7.80;5.80;;;;;;;31.64;36.23;99972.42;105835;1252;61659;-76
2023/09/22 09:33:32;;;;;;;9.50;5.80;;;;;;;31.97;35.51;99975.16;105986;1257;74017;-77
2023/09/22 09:36:01;;;;;;;11.00;5.30;;;;;;;32.30;35.22;99984.17;105858;1260;70794;-76
2023/09/22 09:38:29;;;;;;;9.40;5.70;;;;;;;32.53;34.57;99971.31;105632;1260;71551;-78
2023/09/22 09:40:57;;;;;;;8.60;6.40;;;;;;;32.74;34.44;99978.54;105731;1257;62121;-77
2023/09/22 09:43:24;;;;;;;11.60;5.10;;;;;;;33.10;34.21;99973.02;105850;1257;61465;-77
2023/09/22 09:45:57;;;;;;;6.10;4.80;;;;;;;33.64;33.75;99971.95;105883;1259;73608;-77
2023/09/22 09:48:26;;;;;;;7.60;4.80;;;;;;;34.09;33.01;99967.72;105942;1256;63783;-76
2023/09/22 09:50:57;;;;;;;9.20;5.30;;;;;;;34.27;32.26;99970.40;106159;1255;64909;-78
2023/09/22 09:53:31;;;;;;;9.00;5.30;;;;;;;34.20;32.21;99968.80;106846;1251;60284;-76
2023/09/22 09:56:00;;;;;;;8.60;5.70;;;;;;;34.21;32.17;99961.70;108383;1251;60383;-77
2023/09/22 09:58:31;;;;;;;9.80;4.70;;;;;;;34.16;32.46;99959.27;107491;1251;63627;-76
2023/09/22 10:01:00;;;;;;;7.50;5.40;;;;;;;34.36;32.54;99962.56;107349;1256;73838;-75
2023/09/22 10:03:29;;;;;;;8.20;4.90;;;;;;;34.79;31.96;99962.02;108298;1251;72140;-77
2023/09/22 10:05:57;;;;;;;10.30;5.00;;;;;;;35.38;31.48;99957.34;106421;1255;60621;-76
2023/09/22 10:08:26;;;;;;;8.80;5.00;;;;;;;35.83;30.68;99961.11;106002;1251;60510;-75
2023/09/22 10:10:56;;;;;;;7.40;4.20;;;;;;;36.07;30.27;99964.05;105974;1257;66041;-77
2023/09/22 10:13:24;;;;;;;9.50;5.10;;;;;;;35.98;29.99;99953.66;106053;1254;64049;-76
2023/09/22 10:15:58;;;;;;;9.90;4.90;;;;;;;35.75;30.39;99952.98;105964;1254;63775;-77
2023/09/22 10:18:41;;;;;;;11.10;5.00;;;;;;;35.69;30.51;99948.81;106408;1257;60394;-78
2023/09/22 10:21:09;;;;;;;7.70;5.00;;;;;;;35.78;30.37;99950.59;106036;1256;60342;-77
2023/09/22 10:23:36;;;;;;;9.40;5.10;;;;;;;35.80;30.10;99946.55;106293;1254;67040;-76
2023/09/22 10:26:17;;;;;;;7.60;4.50;;;;;;;35.89;30.06;99943.70;106561;1256;61866;-78
2023/09/22 10:28:44;;;;;;;8.10;5.20;;;;;;;35.98;29.59;99941.77;106331;1258;65627;-79
2023/09/22 10:31:12;;;;;;;4.60;4.20;;;;;;;35.93;29.69;99946.70;106184;1257;60386;-77
2023/09/22 10:33:40;;;;;;;5.50;4.60;;;;;;;35.74;29.68;99955.77;106005;1257;60512;-78
2023/09/22 10:36:08;;;;;;;6.20;4.50;;;;;;;35.36;29.81;99948.25;105866;1257;65838;-78
2023/09/22 10:38:53;;;;;;;8.40;4.80;;;;;;;34.99;30.09;99944.71;106017;1257;61049;-77
2023/09/22 10:41:20;;;;;;;9.20;5.10;;;;;;;34.80;30.55;99942.33;106019;1256;63747;-77
2023/09/22 10:43:59;;;;;;;6.80;4.40;;;;;;;34.84;30.74;99946.88;105902;1254;60431;-77
2023/09/22 10:46:27;;;;;;;7.50;4.70;;;;;;;34.85;30.74;99942.26;105951;1257;60351;-79
2023/09/22 10:48:54;;;;;;;8.40;4.30;;;;;;;34.64;31.02;99939.10;106086;1256;67148;-76
2023/09/22 10:51:22;;;;;;;6.80;4.40;;;;;;;34.26;31.17;99943.01;106040;1257;63365;-79
2023/09/22 10:54:00;;;;;;;6.00;4.50;;;;;;;33.70;31.67;99940.76;105869;1259;73114;-78
2023/09/22 10:56:28;;;;;;;9.50;4.40;;;;;;;33.08;32.32;99951.13;105935;1258;60540;-80
2023/09/22 10:58:55;;;;;;;6.10;4.60;;;;;;;32.55;32.99;99948.72;105937;1251;60538;-78
2023/09/22 11:01:23;;;;;;;10.50;4.90;;;;;;;32.26;33.37;99954.79;106912;1257;73904;-77
2023/09/22 11:03:53;;;;;;;12.60;4.80;;;;;;;32.27;33.44;99949.95;107289;1254;70758;-78
2023/09/22 11:06:22;;;;;;;8.50;4.70;;;;;;;32.40;33.33;99939.14;106908;1257;73817;-77
2023/09/22 11:08:53;;;;;;;8.80;4.60;;;;;;;32.80;33.31;99938.69;106010;1257;60543;-79
2023/09/22 11:11:21;;;;;;;5.60;4.40;;;;;;;33.50;32.74;99931.98;106007;1257;61736;-78
2023/09/22 11:13:53;;;;;;;7.20;4.30;;;;;;;34.22;31.95;99929.02;105954;1257;75827;-79
2023/09/22 11:16:21;;;;;;;7.20;4.60;;;;;;;34.96;31.10;99924.33;105901;1258;63477;-79
2023/09/22 11:18:49;;;;;;;8.00;4.80;;;;;;;35.58;30.27;99930.31;106138;1257;64697;-78
2023/09/22 11:21:16;;;;;;;8.20;4.90;;;;;;;36.01;29.42;99936.13;105983;1257;60456;-78
2023/09/22 11:23:44;;;;;;;6.60;4.20;;;;;;;35.92;29.47;99931.79;105788;1260;60377;-78
2023/09/22 11:26:12;;;;;;;11.20;5.30;;;;;;;35.54;29.78;99928.14;105865;1252;66909;-78